Time;durP1;ratioP1;P1;durP2;ratioP2;P2;SDS_P1;SDS_P2;PMS_P1;PMS_P2;Temp;Humidity;BMP_temperature;BMP_pressure;BME280_temperature;BME280_humidity;BME280_pressure;Samples;Min_cycle;Max_cycle;Signal;HPM_P1;HPM_P2
2023/06/03 00:02:01;;;;;;;2.35;1.48;;;19.20;52.90;;;;;;5016998;28;20509;-77
2023/06/03 00:04:30;;;;;;;2.95;1.55;;;19.20;53.00;;;;;;5031596;28;20112;-80
2023/06/03 00:06:56;;;;;;;2.00;1.55;;;19.20;53.00;;;;;;5049654;28;20160;-77
2023/06/03 00:09:22;;;;;;;2.97;1.73;;;19.20;53.00;;;;;;5032376;28;20144;-77
2023/06/03 00:11:48;;;;;;;2.42;1.80;;;19.10;53.00;;;;;;4999381;28;20471;-77
2023/06/03 00:14:14;;;;;;;1.90;1.50;;;19.20;53.10;;;;;;5032606;28;20117;-77
2023/06/03 00:16:45;;;;;;;2.53;1.55;;;19.10;53.10;;;;;;5032448;28;20025;-77
2023/06/03 00:19:14;;;;;;;2.13;1.63;;;19.10;53.10;;;;;;5016534;28;20034;-77
2023/06/03 00:21:54;;;;;;;2.55;1.73;;;19.10;53.10;;;;;;5017048;28;20102;-78
2023/06/03 00:24:22;;;;;;;2.97;1.70;;;19.10;53.20;;;;;;5017420;28;20088;-77
2023/06/03 00:26:48;;;;;;;2.75;1.80;;;19.00;53.10;;;;;;5016022;28;20053;-77
2023/06/03 00:29:15;;;;;;;1.50;1.27;;;19.00;53.20;;;;;;5032220;28;20030;-77
2023/06/03 00:31:40;;;;;;;2.17;1.60;;;19.00;53.10;;;;;;4998761;28;20038;-77
2023/06/03 00:34:07;;;;;;;2.50;1.70;;;19.00;53.20;;;;;;4982826;28;20087;-77
2023/06/03 00:36:32;;;;;;;3.13;1.80;;;19.00;53.20;;;;;;5015738;28;20038;-77
2023/06/03 00:38:58;;;;;;;2.92;1.85;;;19.00;53.30;;;;;;4999099;28;20029;-78
2023/06/03 00:41:25;;;;;;;2.38;1.85;;;18.90;53.20;;;;;;5015394;28;20049;-77
2023/06/03 00:43:51;;;;;;;2.15;1.60;;;18.90;53.30;;;;;;5016669;28;20455;-77
2023/06/03 00:46:18;;;;;;;2.28;1.55;;;18.90;53.30;;;;;;4998985;28;20036;-77
2023/06/03 00:48:43;;;;;;;2.95;1.90;;;18.90;53.30;;;;;;5016305;28;20038;-76
2023/06/03 00:51:10;;;;;;;1.92;1.60;;;18.80;53.30;;;;;;5016701;28;20045;-77
2023/06/03 00:53:36;;;;;;;2.88;1.70;;;18.80;53.30;;;;;;4997321;28;20052;-77
2023/06/03 00:56:01;;;;;;;2.65;1.80;;;18.80;53.30;;;;;;5015317;28;20113;-77
2023/06/03 00:58:28;;;;;;;2.67;1.67;;;18.80;53.30;;;;;;5031693;28;20034;-77
2023/06/03 01:00:53;;;;;;;1.70;1.42;;;18.80;53.40;;;;;;4998463;28;20037;-77
2023/06/03 01:03:20;;;;;;;2.33;1.75;;;18.80;53.40;;;;;;4999314;28;20172;-77
2023/06/03 01:06:03;;;;;;;1.70;1.40;;;18.70;53.40;;;;;;4999141;28;20053;-77
2023/06/03 01:08:50;;;;;;;2.10;1.65;;;18.70;53.40;;;;;;5031100;28;20046;-77
2023/06/03 01:11:21;;;;;;;1.73;1.42;;;18.70;53.50;;;;;;5015775;28;20061;-76
2023/06/03 01:14:03;;;;;;;2.60;1.70;;;18.70;53.40;;;;;;5047551;28;20096;-76
2023/06/03 01:16:32;;;;;;;1.90;1.60;;;18.60;53.40;;;;;;5031930;28;20461;-77
2023/06/03 01:19:01;;;;;;;2.05;1.40;;;18.60;53.40;;;;;;5013405;28;20029;-79
2023/06/03 01:21:34;;;;;;;2.92;1.77;;;18.60;53.40;;;;;;5046476;28;20045;-76
2023/06/03 01:24:00;;;;;;;3.00;1.90;;;18.60;53.50;;;;;;5013756;28;20034;-77
2023/06/03 01:26:28;;;;;;;2.10;1.60;;;18.50;53.50;;;;;;4998869;28;20030;-77
2023/06/03 01:28:54;;;;;;;2.67;1.60;;;18.50;53.50;;;;;;5048544;28;20394;-76
2023/06/03 01:31:20;;;;;;;3.22;1.80;;;18.50;53.50;;;;;;5013826;28;20126;-77
2023/06/03 01:33:46;;;;;;;1.65;1.40;;;18.50;53.50;;;;;;5046335;28;20076;-76
2023/06/03 01:36:13;;;;;;;2.47;1.52;;;18.40;53.50;;;;;;5014613;28;20044;-76
2023/06/03 01:38:40;;;;;;;2.35;1.58;;;18.40;53.60;;;;;;5047213;28;20042;-77
2023/06/03 01:41:06;;;;;;;2.95;1.88;;;18.40;53.60;;;;;;5047143;28;20045;-77
2023/06/03 01:43:32;;;;;;;2.03;1.67;;;18.40;53.60;;;;;;5013712;28;20482;-76
2023/06/03 01:45:59;;;;;;;3.53;1.70;;;18.40;53.60;;;;;;5046859;28;20053;-76
2023/06/03 01:48:25;;;;;;;2.05;1.65;;;18.40;53.60;;;;;;4997080;28;20038;-77
2023/06/03 01:50:50;;;;;;;2.40;1.65;;;18.30;53.60;;;;;;5013638;28;20034;-76
2023/06/03 01:53:19;;;;;;;2.65;1.70;;;18.30;53.60;;;;;;5013751;28;20042;-77
2023/06/03 01:55:46;;;;;;;2.28;1.90;;;18.30;53.70;;;;;;5014710;28;20378;-76
2023/06/03 01:58:13;;;;;;;11.30;1.60;;;18.30;53.70;;;;;;5046256;28;20431;-76
2023/06/03 02:00:38;;;;;;;2.03;1.70;;;18.30;53.60;;;;;;5015311;28;20068;-76
2023/06/03 02:03:04;;;;;;;2.28;1.38;;;18.30;53.70;;;;;;5021767;28;20097;-76
2023/06/03 02:05:30;;;;;;;2.40;1.70;;;18.30;53.70;;;;;;5014603;28;20036;-76
2023/06/03 02:07:58;;;;;;;1.77;1.42;;;18.20;53.60;;;;;;5014247;28;20056;-76
2023/06/03 02:10:24;;;;;;;1.75;1.35;;;18.20;53.70;;;;;;4998717;28;20453;-76
2023/06/03 02:12:49;;;;;;;2.95;1.70;;;18.20;53.70;;;;;;5030190;28;20463;-81
2023/06/03 02:15:16;;;;;;;2.20;1.50;;;18.20;53.80;;;;;;5013974;28;20049;-77
2023/06/03 02:17:43;;;;;;;1.45;1.27;;;18.10;53.70;;;;;;5013119;28;20034;-77
2023/06/03 02:20:10;;;;;;;1.92;1.60;;;18.10;53.80;;;;;;4997771;28;20072;-76
2023/06/03 02:22:37;;;;;;;3.05;1.73;;;18.10;53.80;;;;;;5029796;28;20034;-78
2023/06/03 02:25:03;;;;;;;1.90;1.45;;;18.10;53.80;;;;;;4997341;28;20056;-78
2023/06/03 02:27:31;;;;;;;2.38;1.70;;;18.00;53.80;;;;;;5046515;28;20042;-77
2023/06/03 02:29:56;;;;;;;2.15;1.60;;;18.00;53.90;;;;;;5013148;28;20030;-75
2023/06/03 02:32:22;;;;;;;2.05;1.55;;;18.00;53.90;;;;;;5013977;28;20530;-76
2023/06/03 02:34:48;;;;;;;2.33;1.70;;;18.00;53.90;;;;;;4996751;28;20408;-77
2023/06/03 02:37:17;;;;;;;2.05;1.60;;;18.00;53.90;;;;;;4996535;28;20029;-76
2023/06/03 02:39:44;;;;;;;2.40;1.50;;;17.90;53.90;;;;;;5029443;28;20036;-77
2023/06/03 02:42:10;;;;;;;2.90;1.60;;;17.90;53.90;;;;;;5029118;28;20072;-76
2023/06/03 02:44:37;;;;;;;2.75;1.67;;;17.90;53.90;;;;;;5013312;28;20038;-78
2023/06/03 02:47:04;;;;;;;3.33;1.65;;;17.90;54.00;;;;;;5045230;28;20068;-76
2023/06/03 02:49:30;;;;;;;2.63;1.75;;;17.80;54.00;;;;;;4996231;28;20037;-77
2023/06/03 02:51:58;;;;;;;2.22;1.52;;;17.80;54.00;;;;;;5012175;28;20038;-77
2023/06/03 02:54:23;;;;;;;1.50;1.40;;;17.80;54.00;;;;;;5013318;28;20092;-76
2023/06/03 02:56:49;;;;;;;2.70;1.67;;;17.80;54.00;;;;;;4997863;28;20038;-75
2023/06/03 02:59:15;;;;;;;2.85;1.70;;;17.80;54.00;;;;;;5014350;28;20041;-76
2023/06/03 03:01:41;;;;;;;2.78;1.50;;;17.70;54.00;;;;;;5012464;28;20041;-75
2023/06/03 03:04:06;;;;;;;2.75;1.40;;;17.70;54.00;;;;;;4980267;28;20030;-75
2023/06/03 03:06:37;;;;;;;1.70;1.50;;;17.70;54.00;;;;;;5013054;28;20030;-75
2023/06/03 03:09:04;;;;;;;2.83;1.80;;;17.70;54.00;;;;;;5045150;28;20135;-75
2023/06/03 03:11:35;;;;;;;2.33;1.30;;;17.60;54.00;;;;;;5045914;28;20026;-75
2023/06/03 03:14:02;;;;;;;2.35;1.50;;;17.60;54.00;;;;;;4980185;28;20076;-76
2023/06/03 03:16:28;;;;;;;2.20;1.60;;;17.70;54.10;;;;;;4997782;28;20033;-77
2023/06/03 03:18:58;;;;;;;2.05;1.48;;;17.60;54.00;;;;;;5017399;28;20038;-76
2023/06/03 03:21:25;;;;;;;2.33;1.45;;;17.60;54.10;;;;;;5016276;28;20061;-75
2023/06/03 03:23:50;;;;;;;2.38;1.30;;;17.60;54.70;;;;;;4999297;28;20034;-77
2023/06/03 03:26:21;;;;;;;2.55;1.60;;;17.50;54.00;;;;;;5049385;28;20080;-75
2023/06/03 03:28:48;;;;;;;1.67;1.45;;;17.50;54.10;;;;;;5049094;28;20038;-77
2023/06/03 03:31:14;;;;;;;1.83;1.38;;;17.50;54.10;;;;;;5048598;28;20124;-75
2023/06/03 03:33:40;;;;;;;1.85;1.50;;;17.50;54.10;;;;;;4983643;28;20030;-76
2023/06/03 03:36:20;;;;;;;2.05;1.40;;;17.50;54.10;;;;;;5048941;28;20030;-76
2023/06/03 03:38:50;;;;;;;2.03;1.30;;;17.40;54.10;;;;;;5001863;28;20048;-77
2023/06/03 03:41:16;;;;;;;2.13;1.40;;;17.40;54.10;;;;;;5016739;28;20049;-75
2023/06/03 03:43:43;;;;;;;1.77;1.50;;;17.40;54.10;;;;;;5016081;28;20034;-75
2023/06/03 03:46:09;;;;;;;3.03;1.50;;;17.30;54.10;;;;;;5016036;28;20474;-75
2023/06/03 03:48:36;;;;;;;1.55;1.30;;;17.30;54.20;;;;;;4999460;28;20482;-76
2023/06/03 03:51:02;;;;;;;1.88;1.50;;;17.40;54.20;;;;;;5015601;28;20172;-75
2023/06/03 03:53:34;;;;;;;1.60;1.23;;;17.30;54.20;;;;;;5000021;28;20034;-76
2023/06/03 03:56:02;;;;;;;1.42;1.15;;;17.30;54.20;;;;;;5016136;28;20034;-76
2023/06/03 03:58:37;;;;;;;2.88;1.60;;;17.30;54.20;;;;;;5017358;28;20371;-76
2023/06/03 04:01:18;;;;;;;1.20;1.10;;;17.20;54.20;;;;;;4999313;28;20038;-76
2023/06/03 04:03:47;;;;;;;1.30;1.20;;;17.20;54.10;;;;;;5031399;28;20024;-77
2023/06/03 04:06:37;;;;;;;1.55;1.33;;;17.20;54.20;;;;;;5031868;28;20109;-76
2023/06/03 04:09:04;;;;;;;1.55;1.40;;;17.10;54.20;;;;;;5032090;28;20132;-79
2023/06/03 04:11:42;;;;;;;1.40;1.30;;;17.20;54.20;;;;;;5000207;28;20041;-78
2023/06/03 04:14:14;;;;;;;2.15;1.38;;;17.10;54.20;;;;;;4999587;28;20359;-75
2023/06/03 04:16:59;;;;;;;1.70;1.25;;;17.10;54.20;;;;;;5015265;28;20034;-79
2023/06/03 04:19:41;;;;;;;1.50;1.20;;;17.10;54.20;;;;;;4984528;28;20034;-76
2023/06/03 04:22:24;;;;;;;1.15;1.00;;;17.10;54.20;;;;;;5030761;28;20034;-76
2023/06/03 04:25:07;;;;;;;1.55;1.40;;;17.10;54.90;;;;;;5014756;28;20022;-76
2023/06/03 04:27:42;;;;;;;1.48;1.15;;;17.00;54.30;;;;;;5030247;28;20026;-78
2023/06/03 04:30:11;;;;;;;1.60;1.17;;;17.00;54.30;;;;;;5047549;28;20033;-77
2023/06/03 04:32:37;;;;;;;1.67;1.25;;;17.00;54.30;;;;;;4998098;28;20057;-79
2023/06/03 04:35:03;;;;;;;1.42;1.15;;;17.00;54.30;;;;;;5014178;28;20072;-77
2023/06/03 04:37:31;;;;;;;1.42;1.08;;;16.90;54.30;;;;;;4998047;28;20116;-76
2023/06/03 04:39:58;;;;;;;1.88;1.30;;;16.90;54.30;;;;;;5014473;28;20096;-78
2023/06/03 04:42:26;;;;;;;1.38;1.20;;;16.90;54.30;;;;;;5047029;28;20046;-77
2023/06/03 04:44:58;;;;;;;1.45;1.20;;;16.90;54.30;;;;;;4982786;28;20026;-77
2023/06/03 04:47:28;;;;;;;1.77;1.10;;;16.90;54.30;;;;;;4998837;28;20030;-76
2023/06/03 04:49:55;;;;;;;2.38;1.20;;;16.90;54.30;;;;;;5046945;28;20034;-77
2023/06/03 04:52:23;;;;;;;1.92;1.05;;;16.90;54.30;;;;;;4998111;28;20425;-77
2023/06/03 04:54:51;;;;;;;1.92;1.40;;;16.80;54.30;;;;;;4998075;28;20038;-77
2023/06/03 04:57:20;;;;;;;1.63;1.15;;;16.80;54.30;;;;;;5047566;28;20080;-76
2023/06/03 04:59:46;;;;;;;1.38;1.10;;;16.80;54.30;;;;;;5014587;28;20045;-77
2023/06/03 05:02:16;;;;;;;1.70;1.25;;;16.80;54.30;;;;;;4998183;28;20033;-77
2023/06/03 05:04:44;;;;;;;1.90;1.10;;;16.80;54.30;;;;;;4997891;28;20045;-76
2023/06/03 05:07:11;;;;;;;1.35;1.20;;;16.80;54.30;;;;;;4998285;28;20129;-77
2023/06/03 05:09:37;;;;;;;2.10;1.20;;;16.80;54.40;;;;;;5013856;28;20544;-77
2023/06/03 05:12:04;;;;;;;1.27;1.15;;;16.80;54.30;;;;;;4997589;28;20083;-77
2023/06/03 05:14:30;;;;;;;1.23;1.10;;;16.80;54.40;;;;;;4997539;28;20041;-78
2023/06/03 05:16:57;;;;;;;1.20;1.10;;;16.70;54.30;;;;;;5046667;28;20036;-77
2023/06/03 05:19:23;;;;;;;1.13;1.00;;;16.70;54.30;;;;;;5046742;28;20161;-77
2023/06/03 05:21:49;;;;;;;1.98;1.23;;;16.80;54.40;;;;;;5013747;28;20042;-79
2023/06/03 05:24:15;;;;;;;1.27;1.15;;;16.70;54.30;;;;;;4981328;28;20367;-77
2023/06/03 05:26:41;;;;;;;1.20;1.10;;;16.70;54.30;;;;;;5017369;28;20037;-79
2023/06/03 05:29:07;;;;;;;1.05;0.95;;;16.70;54.30;;;;;;4998920;28;20064;-77
2023/06/03 05:31:32;;;;;;;1.95;1.20;;;16.70;54.30;;;;;;5013443;28;20461;-77
2023/06/03 05:33:58;;;;;;;1.38;1.25;;;16.80;54.40;;;;;;4998119;28;20492;-78
2023/06/03 05:36:26;;;;;;;2.45;1.13;;;16.80;54.30;;;;;;4997201;28;20522;-75
2023/06/03 05:38:53;;;;;;;1.42;1.00;;;16.70;54.30;;;;;;5012517;28;20034;-76
2023/06/03 05:41:20;;;;;;;1.30;1.20;;;16.70;54.30;;;;;;5013261;28;20038;-76
2023/06/03 05:43:47;;;;;;;1.33;1.05;;;16.70;54.30;;;;;;5046787;28;20034;-76
2023/06/03 05:46:13;;;;;;;1.30;1.20;;;16.70;54.30;;;;;;5013046;28;20103;-76
2023/06/03 05:48:39;;;;;;;1.42;1.05;;;16.70;54.30;;;;;;5013111;28;20044;-77
2023/06/03 05:51:06;;;;;;;0.90;0.90;;;16.70;54.30;;;;;;5013051;28;20038;-77
2023/06/03 05:53:32;;;;;;;1.45;1.30;;;16.70;54.30;;;;;;5013965;28;20049;-77
2023/06/03 05:56:01;;;;;;;1.20;1.00;;;16.70;54.30;;;;;;4997610;28;20041;-78
2023/06/03 05:58:28;;;;;;;1.02;1.00;;;16.70;54.30;;;;;;4996639;28;20029;-79
2023/06/03 06:00:54;;;;;;;1.27;1.10;;;16.80;54.30;;;;;;5045604;28;20091;-78
2023/06/03 06:03:20;;;;;;;1.60;1.20;;;16.70;54.30;;;;;;5029148;28;20032;-76
2023/06/03 06:05:46;;;;;;;1.52;0.98;;;16.70;54.30;;;;;;5012876;28;20037;-76
2023/06/03 06:08:12;;;;;;;1.13;1.00;;;16.70;54.20;;;;;;5045172;28;20096;-75
2023/06/03 06:10:39;;;;;;;1.05;1.00;;;16.80;54.30;;;;;;5013046;28;20030;-77
2023/06/03 06:13:05;;;;;;;1.23;1.00;;;16.70;54.20;;;;;;5012867;28;20038;-76
2023/06/03 06:15:31;;;;;;;2.22;1.20;;;16.80;54.20;;;;;;5029040;28;20030;-77
2023/06/03 06:17:59;;;;;;;1.25;1.05;;;16.80;54.20;;;;;;5012415;28;20133;-76
2023/06/03 06:20:25;;;;;;;1.23;1.13;;;16.80;54.20;;;;;;5045750;28;20118;-75
2023/06/03 06:22:51;;;;;;;2.55;1.17;;;16.80;54.10;;;;;;5012657;28;20172;-75
2023/06/03 06:25:17;;;;;;;2.20;1.40;;;16.80;54.10;;;;;;5045427;28;20070;-75
2023/06/03 06:27:43;;;;;;;1.55;1.17;;;16.80;54.10;;;;;;4996319;28;20026;-76
2023/06/03 06:30:14;;;;;;;2.80;1.20;;;16.80;54.10;;;;;;4996819;28;20069;-76
2023/06/03 06:32:49;;;;;;;1.73;1.17;;;16.80;54.20;;;;;;5028781;28;20038;-77
2023/06/03 06:35:19;;;;;;;1.95;1.20;;;16.80;54.20;;;;;;4997112;28;20398;-75
2023/06/03 06:37:47;;;;;;;2.38;1.40;;;16.80;54.20;;;;;;4996281;28;20564;-76
2023/06/03 06:40:18;;;;;;;1.30;1.00;;;16.80;54.10;;;;;;5045571;28;20049;-76
2023/06/03 06:42:45;;;;;;;1.13;0.98;;;16.90;54.20;;;;;;5029055;28;20038;-76
2023/06/03 06:45:34;;;;;;;1.08;0.93;;;16.80;54.10;;;;;;4985477;28;20041;-76
2023/06/03 06:48:09;;;;;;;1.13;1.05;;;16.90;54.20;;;;;;5012771;28;20026;-76
2023/06/03 06:50:53;;;;;;;1.23;0.98;;;16.90;54.20;;;;;;5030844;28;20417;-77
2023/06/03 06:53:26;;;;;;;1.27;1.02;;;16.90;54.20;;;;;;5033185;28;20117;-76
2023/06/03 06:56:03;;;;;;;1.52;1.17;;;16.90;54.10;;;;;;5016695;28;20141;-75
2023/06/03 06:58:38;;;;;;;1.92;1.10;;;16.90;54.10;;;;;;5015849;28;20038;-77
2023/06/03 07:01:07;;;;;;;1.00;0.90;;;16.90;54.10;;;;;;5016084;28;20045;-76
2023/06/03 07:03:37;;;;;;;1.48;1.10;;;16.90;54.10;;;;;;5000072;28;20045;-77
2023/06/03 07:06:04;;;;;;;1.48;1.30;;;16.90;54.00;;;;;;4999701;28;20030;-77
2023/06/03 07:08:32;;;;;;;2.35;1.30;;;16.90;54.00;;;;;;5032597;28;20059;-76
2023/06/03 07:11:03;;;;;;;1.50;1.10;;;17.00;54.10;;;;;;5048877;28;20048;-78
2023/06/03 07:13:32;;;;;;;1.70;1.15;;;17.00;54.10;;;;;;4999877;28;20037;-76
2023/06/03 07:16:00;;;;;;;1.25;1.02;;;17.00;54.00;;;;;;4999478;28;20490;-76
2023/06/03 07:18:27;;;;;;;0.98;0.98;;;17.00;54.00;;;;;;5032196;28;20084;-84
2023/06/03 07:20:55;;;;;;;0.95;0.90;;;17.00;54.00;;;;;;5032114;28;20033;-76
2023/06/03 07:23:26;;;;;;;0.98;0.95;;;17.00;53.90;;;;;;5032268;28;20053;-76
2023/06/03 07:25:55;;;;;;;1.40;1.20;;;17.10;54.00;;;;;;4999988;28;20065;-76
2023/06/03 07:28:28;;;;;;;1.20;1.10;;;17.10;53.90;;;;;;5015131;28;20433;-76
2023/06/03 07:30:57;;;;;;;1.35;1.20;;;17.20;53.90;;;;;;5031899;28;20026;-77
2023/06/03 07:33:30;;;;;;;1.17;0.93;;;17.20;53.80;;;;;;5016919;28;20032;-76
2023/06/03 07:36:02;;;;;;;1.10;1.00;;;17.20;53.80;;;;;;5048441;28;20087;-78
2023/06/03 07:38:55;;;;;;;1.05;1.00;;;17.30;53.70;;;;;;5015507;28;20033;-76
2023/06/03 07:41:50;;;;;;;1.23;1.10;;;17.30;53.70;;;;;;5031924;28;20053;-75
2023/06/03 07:44:42;;;;;;;1.13;1.00;;;17.40;53.60;;;;;;5030798;28;20026;-76
2023/06/03 07:47:08;;;;;;;1.10;1.00;;;17.50;53.60;;;;;;5048537;28;20041;-75
2023/06/03 07:49:33;;;;;;;1.25;1.08;;;17.50;53.40;;;;;;5017568;28;20022;-75
2023/06/03 07:51:59;;;;;;;1.27;1.08;;;17.60;53.40;;;;;;5015609;28;20033;-76
2023/06/03 07:54:28;;;;;;;1.98;1.10;;;17.60;53.40;;;;;;4999483;28;20129;-75
2023/06/03 07:56:55;;;;;;;1.30;1.08;;;17.70;53.30;;;;;;5017167;28;20110;-76
2023/06/03 07:59:21;;;;;;;0.90;0.90;;;17.70;53.20;;;;;;5031229;28;20033;-76
2023/06/03 08:01:50;;;;;;;1.08;1.00;;;17.80;53.10;;;;;;4997935;28;20045;-76
2023/06/03 08:04:35;;;;;;;0.98;0.95;;;17.90;53.10;;;;;;5014878;28;20034;-76
2023/06/03 08:07:02;;;;;;;0.90;0.90;;;18.00;53.10;;;;;;5048223;28;20103;-76
2023/06/03 08:09:37;;;;;;;1.40;1.00;;;18.00;52.90;;;;;;5015198;28;20065;-76
2023/06/03 08:12:08;;;;;;;1.05;0.95;;;18.10;52.90;;;;;;4998293;28;20048;-76
2023/06/03 08:14:37;;;;;;;1.38;1.05;;;18.20;52.80;;;;;;5014591;28;20506;-77
2023/06/03 08:17:13;;;;;;;1.20;0.90;;;18.30;52.70;;;;;;5014484;28;20040;-76
2023/06/03 08:19:42;;;;;;;1.00;0.90;;;18.40;52.70;;;;;;5014544;28;20034;-77
2023/06/03 08:22:32;;;;;;;0.82;0.82;;;18.40;52.50;;;;;;5030949;28;20121;-76
2023/06/03 08:24:58;;;;;;;1.30;1.10;;;18.50;52.60;;;;;;5047821;28;20383;-76
2023/06/03 08:27:23;;;;;;;1.05;0.93;;;18.60;52.40;;;;;;4997959;28;20022;-76
2023/06/03 08:29:49;;;;;;;1.15;1.05;;;18.70;52.40;;;;;;5015241;28;20041;-77
2023/06/03 08:32:15;;;;;;;1.48;1.10;;;18.70;52.20;;;;;;5014097;28;20053;-77
2023/06/03 08:34:41;;;;;;;1.30;0.90;;;18.90;52.30;;;;;;4997658;28;20037;-75
2023/06/03 08:37:06;;;;;;;1.17;1.00;;;18.90;52.10;;;;;;4997907;28;20042;-77
2023/06/03 08:39:32;;;;;;;1.67;1.00;;;19.00;52.10;;;;;;4998459;28;20490;-76
2023/06/03 08:42:05;;;;;;;1.05;0.90;;;19.10;52.00;;;;;;5030435;28;20476;-75
2023/06/03 08:44:55;;;;;;;1.48;0.98;;;19.20;52.00;;;;;;5030861;28;20117;-77
2023/06/03 08:47:51;;;;;;;1.63;1.00;;;19.30;51.90;;;;;;5014110;28;20026;-74
2023/06/03 08:50:24;;;;;;;0.85;0.85;;;19.40;51.80;;;;;;4997475;28;20034;-74
2023/06/03 08:52:53;;;;;;;0.95;0.80;;;19.50;51.60;;;;;;5030490;28;20030;-75
2023/06/03 08:55:19;;;;;;;0.80;0.80;;;19.60;51.70;;;;;;5046455;28;20040;-74
2023/06/03 08:58:25;;;;;;;0.85;0.80;;;19.60;51.60;;;;;;5046697;28;20172;-74
2023/06/03 09:00:55;;;;;;;0.80;0.80;;;19.70;51.50;;;;;;5014102;28;20046;-74
2023/06/03 09:03:22;;;;;;;0.95;0.90;;;19.80;51.30;;;;;;5013751;28;20029;-75
2023/06/03 09:05:49;;;;;;;0.73;0.73;;;19.90;51.20;;;;;;5015024;28;20034;-75
2023/06/03 09:08:16;;;;;;;1.35;1.00;;;20.00;51.20;;;;;;5046469;28;20071;-75
2023/06/03 09:10:45;;;;;;;0.95;0.85;;;20.10;51.10;;;;;;5013452;28;20030;-75
2023/06/03 09:13:13;;;;;;;0.88;0.85;;;20.10;51.00;;;;;;5014076;28;20022;-76
2023/06/03 09:15:42;;;;;;;0.70;0.70;;;20.30;51.00;;;;;;5014173;28;20040;-74
2023/06/03 09:18:08;;;;;;;1.38;1.00;;;20.30;51.00;;;;;;5013376;28;20566;-75
2023/06/03 09:20:37;;;;;;;1.00;0.73;;;20.40;50.90;;;;;;5013543;28;20064;-75
2023/06/03 09:23:03;;;;;;;0.93;0.80;;;20.50;50.80;;;;;;4996994;28;20064;-75
2023/06/03 09:25:29;;;;;;;0.80;0.80;;;20.60;50.70;;;;;;5014564;28;20418;-79
2023/06/03 09:27:55;;;;;;;0.90;0.80;;;20.70;50.60;;;;;;4996479;28;20091;-74
2023/06/03 09:30:21;;;;;;;1.02;0.70;;;20.80;50.60;;;;;;5013218;28;20124;-73
2023/06/03 09:32:47;;;;;;;1.88;0.90;;;20.90;50.60;;;;;;4996413;28;20030;-74
2023/06/03 09:35:20;;;;;;;0.80;0.80;;;21.00;50.60;;;;;;5079500;28;20522;-73
2023/06/03 09:37:59;;;;;;;0.70;0.70;;;21.00;50.40;;;;;;5062460;28;20051;-73
2023/06/03 09:40:31;;;;;;;0.70;0.70;;;21.10;50.50;;;;;;5074683;28;20035;-72
2023/06/03 09:42:57;;;;;;;0.90;0.80;;;21.20;50.30;;;;;;5076655;28;20097;-74
2023/06/03 09:45:26;;;;;;;0.63;0.63;;;21.30;50.20;;;;;;5070655;28;20147;-74
2023/06/03 09:47:52;;;;;;;1.05;0.70;;;21.40;50.10;;;;;;5071698;28;20170;-73
2023/06/03 09:50:19;;;;;;;0.65;0.65;;;21.50;50.10;;;;;;5081136;28;20032;-74
2023/06/03 09:52:45;;;;;;;0.60;0.60;;;21.60;50.10;;;;;;5080505;28;20488;-76
2023/06/03 09:55:13;;;;;;;1.20;0.80;;;21.60;49.90;;;;;;5069789;28;20029;-75
2023/06/03 09:57:39;;;;;;;0.85;0.70;;;21.70;49.90;;;;;;5071933;28;20047;-76
2023/06/03 10:00:11;;;;;;;0.80;0.80;;;21.80;49.90;;;;;;5075841;28;20086;-75
2023/06/03 10:02:44;;;;;;;0.68;0.68;;;21.90;49.80;;;;;;5063018;28;20055;-76
2023/06/03 10:05:26;;;;;;;0.73;0.60;;;22.00;50.40;;;;;;5062601;28;20035;-77
2023/06/03 10:07:52;;;;;;;0.60;0.60;;;22.10;49.80;;;;;;5063358;28;20033;-76
2023/06/03 10:10:18;;;;;;;1.25;0.82;;;22.20;49.60;;;;;;5069601;28;20028;-75
2023/06/03 10:12:45;;;;;;;0.80;0.80;;;22.30;49.60;;;;;;5107294;27;20385;-75
2023/06/03 10:15:11;;;;;;;0.65;0.60;;;22.30;49.50;;;;;;5079237;28;20123;-75
2023/06/03 10:17:46;;;;;;;0.52;0.52;;;22.40;49.40;;;;;;5078273;28;20500;-76
2023/06/03 10:20:33;;;;;;;0.73;0.73;;;22.50;49.30;;;;;;5073457;28;20163;-77
2023/06/03 10:23:04;;;;;;;0.75;0.70;;;22.60;49.20;;;;;;5079945;28;20036;-75
2023/06/03 10:25:42;;;;;;;0.60;0.60;;;22.70;49.00;;;;;;5064967;28;20127;-77
2023/06/03 10:28:09;;;;;;;0.68;0.68;;;22.80;48.90;;;;;;5069715;28;20028;-76
2023/06/03 10:30:35;;;;;;;1.15;0.80;;;22.80;48.90;;;;;;5056722;28;20016;-76
2023/06/03 10:33:03;;;;;;;2.33;0.82;;;22.90;48.80;;;;;;5076152;28;20017;-77
2023/06/03 10:35:32;;;;;;;0.60;0.60;;;23.00;48.90;;;;;;5069847;28;20111;-76
2023/06/03 10:38:03;;;;;;;0.95;0.75;;;23.10;48.70;;;;;;5074250;28;20047;-76
2023/06/03 10:40:29;;;;;;;0.57;0.55;;;23.10;48.70;;;;;;5077079;28;20033;-75
2023/06/03 10:42:56;;;;;;;0.60;0.60;;;23.20;48.60;;;;;;5047901;28;20029;-77
2023/06/03 10:45:23;;;;;;;0.70;0.70;;;23.30;48.60;;;;;;5074132;28;20405;-76
2023/06/03 10:47:53;;;;;;;1.48;0.47;;;23.40;48.50;;;;;;5059548;28;20017;-74
2023/06/03 10:50:24;;;;;;;1.10;0.70;;;23.50;48.40;;;;;;5038042;28;20020;-77
2023/06/03 10:53:28;;;;;;;0.95;0.65;;;23.60;48.40;;;;;;5065005;28;20025;-75
2023/06/03 10:56:02;;;;;;;0.60;0.60;;;23.60;48.20;;;;;;5050434;28;20481;-74
2023/06/03 10:58:29;;;;;;;0.60;0.60;;;23.70;48.20;;;;;;5060030;28;20036;-75
2023/06/03 11:01:03;;;;;;;0.63;0.63;;;23.80;48.20;;;;;;5045813;28;20021;-76
2023/06/03 11:03:30;;;;;;;0.60;0.60;;;23.80;47.90;;;;;;5059068;28;20025;-76
2023/06/03 11:06:28;;;;;;;0.52;0.52;;;23.90;47.70;;;;;;5058824;28;20031;-75
2023/06/03 11:09:12;;;;;;;1.83;0.65;;;23.90;47.60;;;;;;5046851;28;20103;-75
2023/06/03 11:11:41;;;;;;;0.57;0.40;;;24.00;47.50;;;;;;5063202;28;20029;-75
2023/06/03 11:14:12;;;;;;;1.58;0.80;;;24.00;47.50;;;;;;5044006;28;20055;-76
2023/06/03 11:16:56;;;;;;;0.70;0.70;;;24.10;47.30;;;;;;5061066;28;20063;-76
2023/06/03 11:19:46;;;;;;;0.77;0.60;;;24.10;47.30;;;;;;5037179;28;20035;-76
2023/06/03 11:22:28;;;;;;;0.55;0.55;;;24.10;47.20;;;;;;5065033;28;20056;-75
2023/06/03 11:25:00;;;;;;;1.05;0.70;;;24.20;47.20;;;;;;5063875;28;21486;-75
2023/06/03 11:27:28;;;;;;;0.63;0.60;;;24.20;47.20;;;;;;5065269;28;20025;-75
2023/06/03 11:29:56;;;;;;;0.68;0.60;;;24.20;47.30;;;;;;5067413;28;20424;-75
2023/06/03 11:32:21;;;;;;;0.60;0.60;;;24.20;47.30;;;;;;5089464;28;20043;-75
2023/06/03 11:35:11;;;;;;;0.82;0.60;;;24.20;47.30;;;;;;5056688;28;20429;-76
2023/06/03 11:37:45;;;;;;;0.68;0.68;;;24.20;47.40;;;;;;5062786;28;20039;-75
2023/06/03 11:40:17;;;;;;;0.63;0.63;;;24.30;47.60;;;;;;5062628;28;20033;-75
2023/06/03 11:42:49;;;;;;;1.02;0.73;;;24.30;47.60;;;;;;5048039;28;20032;-75
2023/06/03 11:45:30;;;;;;;0.82;0.70;;;24.30;47.60;;;;;;5073066;28;20043;-76
2023/06/03 11:48:05;;;;;;;0.82;0.63;;;24.30;47.50;;;;;;5065214;28;20032;-76
2023/06/03 11:50:49;;;;;;;0.73;0.60;;;24.30;47.50;;;;;;5065466;28;20029;-76
2023/06/03 11:53:35;;;;;;;0.63;0.60;;;24.30;47.50;;;;;;5067908;28;20039;-77
2023/06/03 11:56:12;;;;;;;1.38;0.70;;;24.30;47.70;;;;;;5044163;28;20053;-76
2023/06/03 11:58:40;;;;;;;2.33;0.60;;;24.30;47.80;;;;;;5051728;28;20110;-76
2023/06/03 12:01:08;;;;;;;0.80;0.65;;;24.30;47.80;;;;;;5064785;28;20020;-78
2023/06/03 12:03:36;;;;;;;1.35;0.60;;;24.30;48.50;;;;;;5058423;28;20039;-76
2023/06/03 12:06:03;;;;;;;0.80;0.70;;;24.30;47.70;;;;;;5043634;28;20032;-76
2023/06/03 12:08:45;;;;;;;0.70;0.70;;;24.30;47.70;;;;;;5050984;28;20036;-76
2023/06/03 12:11:24;;;;;;;0.80;0.80;;;24.30;47.70;;;;;;5063727;28;20039;-75
2023/06/03 12:13:50;;;;;;;0.80;0.70;;;24.30;47.70;;;;;;5043953;28;20036;-76
2023/06/03 12:16:26;;;;;;;0.60;0.57;;;24.30;47.70;;;;;;5041435;28;20039;-75
2023/06/03 12:18:53;;;;;;;0.60;0.60;;;24.40;47.80;;;;;;5057575;28;20024;-76
2023/06/03 12:21:22;;;;;;;0.60;0.60;;;24.30;47.80;;;;;;5065016;28;20511;-76
2023/06/03 12:23:48;;;;;;;0.70;0.70;;;24.40;47.80;;;;;;5063331;28;20028;-76
2023/06/03 12:26:14;;;;;;;1.55;0.98;;;24.30;47.60;;;;;;5047119;28;20033;-76
2023/06/03 12:28:40;;;;;;;0.98;0.80;;;24.30;47.60;;;;;;5069260;28;20021;-74
2023/06/03 12:31:16;;;;;;;0.70;0.70;;;24.30;48.30;;;;;;5046416;28;20033;-74
2023/06/03 12:33:46;;;;;;;0.88;0.75;;;24.30;47.60;;;;;;5062987;28;20063;-74
2023/06/03 12:36:13;;;;;;;0.70;0.70;;;24.30;47.40;;;;;;5056558;28;20040;-76
2023/06/03 12:38:56;;;;;;;0.63;0.50;;;24.30;47.20;;;;;;5056046;28;20059;-75
2023/06/03 12:41:22;;;;;;;0.65;0.65;;;24.30;47.20;;;;;;5058534;28;20485;-75
2023/06/03 12:43:49;;;;;;;0.50;0.50;;;24.30;47.20;;;;;;5037454;28;20037;-78
2023/06/03 12:46:18;;;;;;;0.60;0.60;;;24.30;47.00;;;;;;5062082;28;20377;-76
2023/06/03 12:48:47;;;;;;;0.57;0.57;;;24.30;46.90;;;;;;5052016;28;20017;-76
2023/06/03 12:51:30;;;;;;;0.75;0.75;;;24.30;46.90;;;;;;5067471;28;20059;-76
2023/06/03 12:53:56;;;;;;;0.82;0.65;;;24.30;46.90;;;;;;5049261;28;20436;-77
2023/06/03 12:56:23;;;;;;;0.85;0.80;;;24.30;47.00;;;;;;5065295;28;20033;-76
2023/06/03 12:58:54;;;;;;;0.95;0.80;;;24.30;46.90;;;;;;5064933;28;20041;-77
2023/06/03 13:01:20;;;;;;;0.60;0.60;;;24.30;46.90;;;;;;5065412;28;20021;-76
2023/06/03 13:03:47;;;;;;;2.78;0.68;;;24.30;47.50;;;;;;5044702;28;20033;-77